GMT,Max TemperatureF,Mean TemperatureF,Min TemperatureF,Max Dew PointF,MeanDew PointF,Min DewpointF,Max Humidity, Mean Humidity, Min Humidity, Max Sea Level PressureIn, Mean Sea Level PressureIn, Min Sea Level PressureIn, Max VisibilityMiles, Mean VisibilityMiles, Min VisibilityMiles, Max Wind SpeedMPH, Mean Wind SpeedMPH, Max Gust SpeedMPH,PrecipitationIn, CloudCover, Events, WindDirDegrees
2012-11-1,45,38,32,39,34,30,100,88,68,28.77,28.73,28.71,19,5,0,13,6,,0.02,3,Fog-Rain,263
2012-11-2,45,39,33,39,36,30,93,82,64,29.18,28.89,28.68,16,7,6,24,12,36,0.16,5,Rain,260
2012-11-3,45,36,28,36,30,26,100,87,59,29.29,29.22,29.18,19,9,6,9,3,,0.00,3,,286
2012-11-4,48,37,26,40,33,25,100,90,69,29.61,29.42,29.27,19,8,6,8,4,,0.00,2,,27
2012-11-5,48,40,32,37,33,30,93,76,51,29.94,29.78,29.62,19,9,6,10,7,,0.00,3,,283
2012-11-6,54,44,35,46,41,30,93,77,62,29.99,29.88,29.80,16,7,6,22,15,,0.02,6,Rain,263
2012-11-7,51,46,42,46,43,37,87,82,71,29.96,29.84,29.71,19,9,6,28,19,37,0.00,3,,250
2012-11-8,52,48,44,43,41,39,87,75,52,29.86,29.78,29.68,6,6,6,22,17,,0.00,3,,260
2012-11-9,50,46,42,46,42,38,93,82,67,29.65,29.42,29.30,19,8,3,22,17,,0.04,6,Rain,234
2012-11-10,48,42,35,41,38,34,100,85,64,29.44,29.29,29.24,19,8,6,16,11,,0.00,3,Rain,245
2012-11-11,46,40,33,37,34,31,93,78,62,29.97,29.77,29.44,19,8,6,12,9,,0.00,4,,264
2012-11-12,54,41,28,52,39,27,100,93,82,29.95,29.88,29.83,16,7,3,16,4,,0.04,7,Rain,236
2012-11-13,57,52,48,52,50,46,94,86,63,30.09,29.95,29.89,19,8,2,25,15,34,0.02,7,Rain,227
2012-11-14,50,46,41,48,45,39,100,92,84,30.22,30.15,30.06,19,7,3,13,6,,0.02,8,Rain,252
2012-11-15,48,42,35,46,41,34,100,95,81,30.19,30.07,29.92,12,4,0,10,5,,0.01,5,Fog-Rain,263
2012-11-16,48,44,41,45,40,39,93,83,70,29.89,29.78,29.65,19,8,6,17,11,26,0.00,6,,249
2012-11-17,46,40,35,42,38,32,94,87,67,29.65,29.60,29.56,12,7,6,17,9,,0.00,4,Rain,255
2012-11-18,44,38,33,38,35,32,93,84,75,29.78,29.73,29.65,19,8,4,16,11,,0.01,4,Rain,242
2012-11-19,53,47,41,48,44,38,93,82,70,29.62,29.39,29.30,19,7,5,29,15,41,0.12,7,Rain,201
2012-11-20,55,50,44,50,44,37,94,79,61,29.55,29.44,29.33,19,8,6,25,12,38,0.01,6,Rain,194
2012-11-21,46,40,33,41,38,32,100,86,70,29.70,29.66,29.56,19,8,6,15,8,,0.00,4,Fog,226
2012-11-22,50,42,33,46,40,34,100,88,77,29.59,29.38,29.27,19,7,4,22,10,,0.47,7,Rain,197
2012-11-23,45,40,35,39,36,34,93,81,61,29.82,29.59,29.30,12,6,6,23,16,30,0.02,3,Rain,240
2012-11-24,41,36,32,39,34,30,100,92,81,29.95,29.86,29.65,16,8,6,14,7,,0.02,6,Rain,279
2012-11-25,43,39,35,41,38,34,100,88,80,29.65,29.53,29.44,19,7,4,17,11,,0.20,7,Rain,332
2012-11-26,44,40,37,38,37,34,93,80,69,29.83,29.72,29.62,6,6,6,14,9,,0.00,7,,6
2012-11-27,46,42,38,36,34,30,81,73,59,30.08,29.96,29.83,19,7,6,15,10,,0.00,4,,350
2012-11-28,42,36,30,32,28,25,87,71,55,30.10,30.07,30.06,6,6,6,12,8,,0.00,1,,301
2012-11-29,38,34,30,30,27,25,87,78,66,30.04,29.93,29.83,17,8,6,10,7,,0.01,3,,262
2012-11-30,40,35,30,34,30,25,93,81,59,29.87,29.84,29.80,19,7,5,9,7,,0.04,5,Rain-Snow,265